Tiverton, Rhode Island
Current Conditions -  °F | °C
As of 8:53 AM on Friday 28 Nov 2014 (Local Time) from KUUU Reporting Station
Overcast Overcast  
Wind Chill: 24°   Ceiling: 3900
Heat Index: 34°   Visibility: 10mi
Dew Point: 24°   Wind: 15mph
Humidity: 67%   Direction: 330°NNW
Pressure: 30.04"   Gusts: NA
Location:  41.62°N, 71.21°W
Report Text: KUUU 281353Z AUTO 33013KT 10SM OVC039 01/M04 A3004 RMK AO2 SLP172 T00111044
Loading
Personal Weather Stations






























Interactive Weather Map New forecast layout! Learn more

10-Day Weather Forecast

Advertisements
Track Severe Weather on mobile